createdAt,value
2023-05-20T00:00:53.170Z,2.30
2023-05-20T00:01:53.129Z,2.20
2023-05-20T00:02:53.216Z,2.00
2023-05-20T00:03:53.316Z,2.00
2023-05-20T00:04:53.122Z,2.20
2023-05-20T00:05:53.083Z,2.00
2023-05-20T00:06:53.100Z,2.00
2023-05-20T00:07:53.120Z,2.00
2023-05-20T00:08:53.124Z,1.90
2023-05-20T00:09:53.050Z,1.80
2023-05-20T00:10:53.056Z,1.60
2023-05-20T00:11:53.034Z,1.80
2023-05-20T00:12:52.999Z,1.90
2023-05-20T00:13:53.002Z,1.70
2023-05-20T00:14:53.936Z,1.50
2023-05-20T00:15:52.991Z,1.60
2023-05-20T00:16:52.999Z,1.80
2023-05-20T00:17:52.974Z,1.80
2023-05-20T00:18:52.988Z,1.60
2023-05-20T00:19:52.946Z,1.70
2023-05-20T00:20:52.934Z,1.70
2023-05-20T00:21:52.927Z,1.60
2023-05-20T00:22:52.880Z,1.50
2023-05-20T00:23:52.930Z,1.70
2023-05-20T00:24:52.876Z,1.70
2023-05-20T00:25:52.865Z,1.40
2023-05-20T00:26:52.955Z,1.50
2023-05-20T00:27:52.949Z,1.30
2023-05-20T00:28:52.845Z,1.50
2023-05-20T00:29:52.846Z,1.40
2023-05-20T00:30:52.856Z,1.40
2023-05-20T00:31:52.848Z,1.60
2023-05-20T00:32:52.859Z,1.70
2023-05-20T00:33:52.764Z,1.40
2023-05-20T00:34:52.754Z,1.90
2023-05-20T00:35:52.747Z,1.40
2023-05-20T00:36:52.726Z,1.60
2023-05-20T00:37:52.774Z,1.50
2023-05-20T00:38:52.686Z,1.70
2023-05-20T00:39:52.713Z,1.40
2023-05-20T00:40:52.782Z,1.60
2023-05-20T00:41:52.686Z,1.40
2023-05-20T00:42:52.646Z,1.30
2023-05-20T00:43:52.686Z,1.70
2023-05-20T00:44:52.630Z,1.80
2023-05-20T00:45:52.706Z,1.80
2023-05-20T00:46:52.619Z,1.80
2023-05-20T00:47:52.810Z,1.60
2023-05-20T00:48:52.698Z,1.40
2023-05-20T00:49:52.704Z,1.60
2023-05-20T00:50:52.556Z,1.60
2023-05-20T00:51:52.576Z,1.50
2023-05-20T00:52:52.512Z,1.60
2023-05-20T00:53:52.558Z,1.60
2023-05-20T00:54:52.519Z,1.70
2023-05-20T00:55:52.545Z,1.50
2023-05-20T00:56:52.740Z,1.70
2023-05-20T00:57:52.509Z,1.30
2023-05-20T00:58:52.456Z,1.40
2023-05-20T00:59:52.505Z,1.40
2023-05-20T01:00:52.447Z,1.80
2023-05-20T01:01:52.559Z,2.10
2023-05-20T01:02:52.538Z,2.10
2023-05-20T01:03:52.466Z,1.90
2023-05-20T01:04:52.393Z,1.40
2023-05-20T01:05:52.416Z,1.70
2023-05-20T01:06:52.353Z,2.10
2023-05-20T01:07:52.375Z,1.70
2023-05-20T01:08:52.360Z,1.60
2023-05-20T01:09:52.357Z,1.70
2023-05-20T01:10:52.308Z,1.40
2023-05-20T01:11:52.331Z,1.80
2023-05-20T01:12:52.348Z,1.80
2023-05-20T01:13:52.294Z,1.50
2023-05-20T01:14:52.296Z,1.80
2023-05-20T01:15:52.323Z,1.70
2023-05-20T01:16:52.244Z,1.50
2023-05-20T01:17:52.511Z,1.80
2023-05-20T01:18:52.266Z,1.60
2023-05-20T01:19:52.347Z,1.60
2023-05-20T01:20:52.236Z,1.80
2023-05-20T01:21:52.231Z,1.80
2023-05-20T01:22:52.190Z,1.60
2023-05-20T01:23:52.209Z,1.60
2023-05-20T01:24:52.155Z,1.50
2023-05-20T01:25:52.157Z,1.70
2023-05-20T01:26:52.140Z,1.80
2023-05-20T01:27:52.181Z,1.50
2023-05-20T01:28:52.111Z,2.00
2023-05-20T01:29:52.203Z,1.80
2023-05-20T01:30:52.198Z,1.80
2023-05-20T01:31:52.198Z,1.70
2023-05-20T01:32:52.171Z,1.60
2023-05-20T01:33:52.086Z,1.50
2023-05-20T01:34:52.044Z,1.90
2023-05-20T01:35:52.046Z,1.60
2023-05-20T01:36:52.046Z,1.90
2023-05-20T01:37:52.036Z,1.70
2023-05-20T01:38:51.983Z,1.90
2023-05-20T01:39:52.020Z,1.70
2023-05-20T01:40:51.990Z,1.80
2023-05-20T01:41:51.977Z,1.70
2023-05-20T01:42:51.952Z,1.60
2023-05-20T01:43:52.004Z,2.40
2023-05-20T01:44:51.912Z,1.50
2023-05-20T01:45:51.925Z,1.60
2023-05-20T01:46:51.937Z,1.50
2023-05-20T01:47:51.938Z,1.90
2023-05-20T01:48:51.886Z,1.90
2023-05-20T01:49:52.033Z,1.90
2023-05-20T01:50:51.984Z,1.70
2023-05-20T01:51:51.853Z,1.90
2023-05-20T01:52:51.834Z,1.70
2023-05-20T01:53:51.854Z,1.60
2023-05-20T01:54:51.871Z,1.70
2023-05-20T01:55:51.817Z,1.60
2023-05-20T01:56:51.789Z,1.60
2023-05-20T01:57:51.869Z,1.70
2023-05-20T01:58:51.798Z,1.60
2023-05-20T01:59:51.788Z,1.60
2023-05-20T02:00:51.793Z,1.80
2023-05-20T02:01:51.887Z,1.80
2023-05-20T02:02:51.747Z,1.60
2023-05-20T02:03:51.844Z,1.70
2023-05-20T02:04:51.689Z,1.80
2023-05-20T02:05:51.778Z,1.50
2023-05-20T02:06:51.664Z,2.00
2023-05-20T02:07:51.682Z,1.80
2023-05-20T02:08:51.637Z,1.80
2023-05-20T02:09:52.234Z,1.90
2023-05-20T02:10:51.752Z,1.70
2023-05-20T02:11:51.643Z,1.60
2023-05-20T02:12:51.615Z,1.50
2023-05-20T02:13:51.633Z,1.60
2023-05-20T02:14:51.612Z,1.70
2023-05-20T02:15:51.590Z,1.90
2023-05-20T02:16:51.632Z,2.00
2023-05-20T02:17:51.584Z,1.90
2023-05-20T02:18:51.656Z,2.00
2023-05-20T02:19:51.590Z,1.80
2023-05-20T02:20:51.518Z,1.70
2023-05-20T02:21:51.689Z,1.70
2023-05-20T02:22:51.514Z,2.00
2023-05-20T02:23:51.528Z,1.80
2023-05-20T02:24:51.464Z,1.80
2023-05-20T02:25:51.538Z,1.80
2023-05-20T02:26:51.455Z,1.70
2023-05-20T02:27:51.457Z,1.80
2023-05-20T02:28:51.420Z,1.90
2023-05-20T02:29:51.439Z,1.60
2023-05-20T02:30:51.457Z,1.70
2023-05-20T02:31:51.604Z,1.70
2023-05-20T02:32:51.416Z,2.10
2023-05-20T02:33:51.462Z,1.90
2023-05-20T02:34:51.361Z,1.90
2023-05-20T02:35:51.465Z,2.00
2023-05-20T02:36:51.316Z,1.80
2023-05-20T02:37:51.370Z,1.60
2023-05-20T02:38:51.326Z,1.80
2023-05-20T02:39:51.331Z,1.90
2023-05-20T02:40:51.355Z,1.90
2023-05-20T02:41:51.307Z,1.80
2023-05-20T02:42:51.268Z,1.90
2023-05-20T02:43:51.412Z,1.70
2023-05-20T02:44:51.233Z,1.90
2023-05-20T02:45:51.261Z,2.00
2023-05-20T02:46:51.229Z,1.60
2023-05-20T02:47:51.334Z,1.80
2023-05-20T02:48:51.244Z,1.80
2023-05-20T02:49:51.227Z,1.80
2023-05-20T02:50:51.192Z,2.00
2023-05-20T02:51:51.189Z,1.90
2023-05-20T02:52:51.150Z,2.00
2023-05-20T02:53:51.161Z,2.00
2023-05-20T02:54:51.100Z,2.10
2023-05-20T02:55:51.232Z,2.00
2023-05-20T02:56:51.124Z,2.00
2023-05-20T02:57:51.114Z,2.20
2023-05-20T02:58:51.070Z,2.00
2023-05-20T02:59:51.081Z,2.10
2023-05-20T03:00:51.125Z,2.10
2023-05-20T03:01:51.083Z,2.30
2023-05-20T03:02:51.101Z,2.20
2023-05-20T03:03:51.100Z,2.30
2023-05-20T03:04:51.138Z,2.10
2023-05-20T03:05:50.989Z,2.00
2023-05-20T03:06:50.980Z,2.20
2023-05-20T03:07:50.990Z,2.30
2023-05-20T03:08:50.939Z,2.20
2023-05-20T03:09:50.970Z,2.50
2023-05-20T03:10:50.939Z,2.20
2023-05-20T03:11:50.937Z,2.30
2023-05-20T03:12:50.951Z,2.30
2023-05-20T03:13:50.900Z,2.30
2023-05-20T03:14:50.866Z,2.20
2023-05-20T03:15:51.000Z,2.10
2023-05-20T03:16:50.883Z,2.30
2023-05-20T03:17:50.990Z,2.10
2023-05-20T03:18:50.852Z,2.20
2023-05-20T03:19:50.831Z,2.30
2023-05-20T03:20:51.014Z,2.40
2023-05-20T03:21:50.810Z,2.20
2023-05-20T03:22:50.870Z,2.30
2023-05-20T03:23:50.805Z,2.40
2023-05-20T03:24:50.771Z,2.30
2023-05-20T03:25:50.780Z,2.50
2023-05-20T03:26:50.754Z,2.40
2023-05-20T03:27:50.738Z,2.50
2023-05-20T03:28:50.723Z,2.40
2023-05-20T03:29:50.727Z,2.70
2023-05-20T03:30:50.684Z,2.60
2023-05-20T03:31:51.252Z,2.50
2023-05-20T03:32:51.061Z,2.50
2023-05-20T03:33:50.668Z,2.40
2023-05-20T03:34:50.646Z,2.50
2023-05-20T03:35:50.660Z,2.20
2023-05-20T03:36:50.694Z,2.40
2023-05-20T03:37:50.643Z,2.40
2023-05-20T03:38:50.662Z,2.50
2023-05-20T03:39:50.601Z,2.60
2023-05-20T03:40:50.569Z,2.40
2023-05-20T03:41:50.574Z,2.40
2023-05-20T03:42:50.675Z,2.10
2023-05-20T03:43:50.575Z,2.50
2023-05-20T03:44:50.520Z,2.20
2023-05-20T03:45:50.597Z,2.20
2023-05-20T03:46:50.533Z,2.40
2023-05-20T03:47:50.567Z,2.60
2023-05-20T03:48:50.475Z,2.30
2023-05-20T03:49:50.553Z,2.30
2023-05-20T03:50:50.460Z,2.40
2023-05-20T03:51:50.479Z,2.50
2023-05-20T03:52:50.692Z,2.30
2023-05-20T03:53:50.590Z,3.00
2023-05-20T03:54:50.509Z,2.20
2023-05-20T03:55:50.419Z,2.40
2023-05-20T03:56:50.397Z,2.70
2023-05-20T03:57:50.445Z,2.40
2023-05-20T03:58:50.383Z,2.60
2023-05-20T03:59:50.473Z,2.70
2023-05-20T04:00:50.342Z,2.80
2023-05-20T04:01:50.388Z,2.80
2023-05-20T04:02:50.400Z,2.20
2023-05-20T04:03:50.526Z,2.10
2023-05-20T04:04:50.279Z,2.40
2023-05-20T04:05:50.294Z,2.40
2023-05-20T04:06:50.354Z,2.60
2023-05-20T04:07:50.285Z,2.50
2023-05-20T04:08:50.246Z,2.20
2023-05-20T04:09:50.299Z,2.30
2023-05-20T04:10:50.250Z,2.70
2023-05-20T04:11:50.218Z,2.30
2023-05-20T04:12:50.304Z,2.40
2023-05-20T04:13:50.252Z,2.60
2023-05-20T04:14:50.207Z,2.40
2023-05-20T04:15:50.240Z,2.40
2023-05-20T04:16:50.281Z,2.20
2023-05-20T04:17:50.233Z,2.30
2023-05-20T04:18:50.131Z,2.20
2023-05-20T04:19:50.179Z,2.50
2023-05-20T04:20:50.122Z,2.60
2023-05-20T04:21:50.140Z,2.20
2023-05-20T04:22:50.114Z,2.10
2023-05-20T04:23:50.098Z,2.10
2023-05-20T04:24:50.056Z,2.20
2023-05-20T04:25:50.166Z,2.40
2023-05-20T04:26:50.043Z,2.50
2023-05-20T04:27:50.065Z,2.40
2023-05-20T04:28:50.023Z,2.60
2023-05-20T04:29:50.262Z,2.20
2023-05-20T04:30:50.027Z,2.30
2023-05-20T04:31:50.111Z,2.50
2023-05-20T04:32:50.475Z,2.40
2023-05-20T04:33:49.964Z,2.50
2023-05-20T04:34:49.972Z,2.60
2023-05-20T04:35:49.924Z,2.30
2023-05-20T04:36:49.967Z,2.50
2023-05-20T04:37:49.903Z,2.60
2023-05-20T04:38:49.933Z,2.40
2023-05-20T04:39:49.908Z,2.20
2023-05-20T04:40:49.906Z,2.50
2023-05-20T04:41:49.865Z,2.20
2023-05-20T04:42:49.938Z,2.20
2023-05-20T04:43:49.828Z,2.30
2023-05-20T04:44:49.848Z,2.50
2023-05-20T04:45:49.821Z,2.50
2023-05-20T04:46:49.865Z,2.50
2023-05-20T04:47:49.853Z,2.50
2023-05-20T04:48:49.798Z,2.30
2023-05-20T04:49:49.780Z,2.60
2023-05-20T04:50:49.800Z,2.60
2023-05-20T04:51:49.742Z,2.30
2023-05-20T04:52:49.763Z,2.30
2023-05-20T04:53:49.909Z,2.40
2023-05-20T04:54:49.964Z,2.40
2023-05-20T04:55:49.704Z,2.60
2023-05-20T04:56:49.723Z,2.60
2023-05-20T04:57:49.708Z,2.40
2023-05-20T04:58:49.688Z,2.20
2023-05-20T04:59:49.665Z,2.50
2023-05-20T05:00:49.677Z,2.40
2023-05-20T05:01:49.758Z,2.50
2023-05-20T05:02:49.763Z,2.60
2023-05-20T05:03:49.701Z,2.40
2023-05-20T05:04:49.705Z,2.30
2023-05-20T05:05:49.593Z,2.50
2023-05-20T05:06:49.643Z,2.70
2023-05-20T05:07:49.583Z,2.30
2023-05-20T05:08:49.575Z,2.60
2023-05-20T05:09:49.541Z,2.70
2023-05-20T05:10:49.552Z,2.50
2023-05-20T05:11:49.634Z,2.70
2023-05-20T05:12:49.529Z,2.50
2023-05-20T05:13:49.682Z,2.60
2023-05-20T05:14:49.536Z,2.40
2023-05-20T05:15:49.605Z,2.40
2023-05-20T05:16:49.479Z,2.70
2023-05-20T05:17:49.481Z,2.60
2023-05-20T05:18:49.537Z,2.80
2023-05-20T05:19:49.450Z,2.00
2023-05-20T05:20:49.569Z,2.60
2023-05-20T05:21:49.468Z,2.30
2023-05-20T05:22:49.457Z,2.60
2023-05-20T05:23:49.374Z,2.30
2023-05-20T05:24:49.452Z,2.60
2023-05-20T05:25:49.408Z,2.60
2023-05-20T05:26:49.368Z,2.80
2023-05-20T05:27:49.414Z,2.30
2023-05-20T05:28:49.626Z,2.50
2023-05-20T05:29:49.314Z,2.50
2023-05-20T05:30:49.396Z,2.40
2023-05-20T05:31:49.333Z,2.40
2023-05-20T05:32:49.601Z,2.50
2023-05-20T05:33:49.299Z,2.70
2023-05-20T05:34:49.371Z,2.60
2023-05-20T05:35:49.348Z,2.60
2023-05-20T05:36:49.261Z,2.90
2023-05-20T05:37:49.237Z,2.70
2023-05-20T05:38:49.274Z,2.80
2023-05-20T05:39:49.216Z,2.80
2023-05-20T05:40:49.211Z,2.60
2023-05-20T05:41:49.188Z,2.60
2023-05-20T05:42:49.299Z,2.50
2023-05-20T05:43:49.164Z,2.50
2023-05-20T05:44:49.191Z,2.50
2023-05-20T05:45:49.284Z,2.90
2023-05-20T05:46:49.288Z,2.50
2023-05-20T05:47:49.201Z,2.70
2023-05-20T05:48:49.161Z,2.60
2023-05-20T05:49:49.127Z,3.50
2023-05-20T05:50:49.090Z,2.90
2023-05-20T05:51:49.054Z,2.50
2023-05-20T05:52:49.089Z,3.00
2023-05-20T05:53:49.028Z,2.80
2023-05-20T05:54:49.606Z,3.00
2023-05-20T05:55:49.288Z,3.50
2023-05-20T05:56:49.050Z,3.00
2023-05-20T05:57:49.036Z,2.90
2023-05-20T05:58:49.232Z,2.40
2023-05-20T05:59:48.965Z,2.50
2023-05-20T06:00:49.157Z,2.80
2023-05-20T06:01:49.108Z,2.60
2023-05-20T06:02:49.211Z,2.90
2023-05-20T06:03:49.052Z,2.60
2023-05-20T06:04:48.985Z,2.80
2023-05-20T06:05:48.903Z,3.00
2023-05-20T06:06:48.919Z,2.50
2023-05-20T06:07:48.958Z,2.80
2023-05-20T06:08:48.911Z,2.70
2023-05-20T06:09:48.909Z,3.00
2023-05-20T06:10:48.913Z,2.60
2023-05-20T06:11:49.014Z,2.60
2023-05-20T06:12:48.848Z,2.90
2023-05-20T06:13:48.843Z,2.60
2023-05-20T06:14:48.840Z,2.70
2023-05-20T06:15:48.936Z,2.60
2023-05-20T06:16:48.992Z,2.40
2023-05-20T06:17:48.786Z,2.60
2023-05-20T06:18:48.824Z,2.60
2023-05-20T06:19:48.748Z,2.60
2023-05-20T06:20:48.798Z,2.70
2023-05-20T06:21:48.747Z,2.60
2023-05-20T06:22:48.759Z,2.80
2023-05-20T06:23:48.701Z,2.80
2023-05-20T06:24:48.741Z,3.00
2023-05-20T06:25:48.754Z,2.90
2023-05-20T06:26:48.697Z,2.50
2023-05-20T06:27:49.021Z,2.70
2023-05-20T06:28:48.692Z,2.50
2023-05-20T06:29:48.640Z,2.50
2023-05-20T06:30:48.771Z,2.70
2023-05-20T06:31:48.620Z,2.70
2023-05-20T06:32:48.662Z,2.50
2023-05-20T06:33:48.600Z,2.40
2023-05-20T06:34:48.637Z,2.40
2023-05-20T06:35:49.352Z,2.40
2023-05-20T06:36:48.659Z,2.60
2023-05-20T06:37:48.750Z,2.90
2023-05-20T06:38:48.560Z,2.70
2023-05-20T06:39:48.557Z,2.50
2023-05-20T06:40:48.549Z,2.60
2023-05-20T06:41:48.493Z,3.10
2023-05-20T06:42:48.523Z,2.50
2023-05-20T06:43:49.104Z,2.50
2023-05-20T06:44:48.516Z,2.80
2023-05-20T06:45:48.457Z,2.70
2023-05-20T06:46:48.527Z,3.00
2023-05-20T06:47:48.472Z,3.00
2023-05-20T06:48:48.484Z,3.20
2023-05-20T06:49:48.413Z,2.60
2023-05-20T06:50:48.509Z,2.90
2023-05-20T06:51:48.416Z,2.80
2023-05-20T06:52:48.390Z,2.80
2023-05-20T06:53:48.356Z,2.60
2023-05-20T06:54:48.370Z,2.70
2023-05-20T06:55:48.390Z,2.80
2023-05-20T06:56:48.475Z,2.80
2023-05-20T06:57:48.490Z,2.70
2023-05-20T06:58:48.327Z,3.40
2023-05-20T06:59:48.284Z,2.90
2023-05-20T07:00:48.312Z,2.60
2023-05-20T07:01:48.287Z,3.20
2023-05-20T07:02:48.340Z,2.90
2023-05-20T07:03:48.298Z,2.70
2023-05-20T07:04:48.250Z,2.70
2023-05-20T07:05:52.468Z,2.60
2023-05-20T07:06:48.225Z,2.80
2023-05-20T07:07:48.207Z,2.70
2023-05-20T07:08:48.196Z,2.60
2023-05-20T07:09:48.172Z,2.50
2023-05-20T07:10:48.222Z,2.70
2023-05-20T07:11:48.152Z,2.50
2023-05-20T07:12:48.166Z,2.40
2023-05-20T07:13:48.238Z,2.60
2023-05-20T07:14:48.152Z,2.80
2023-05-20T07:15:48.195Z,2.70
2023-05-20T07:16:48.237Z,2.60
2023-05-20T07:17:48.392Z,2.80
2023-05-20T07:18:48.139Z,2.50
2023-05-20T07:19:48.059Z,3.00
2023-05-20T07:20:48.129Z,2.90
2023-05-20T07:21:48.045Z,2.80
2023-05-20T07:22:48.060Z,2.60
2023-05-20T07:23:48.055Z,2.60
2023-05-20T07:24:48.035Z,2.80
2023-05-20T07:25:48.002Z,3.20
2023-05-20T07:26:48.020Z,2.70
2023-05-20T07:27:48.103Z,3.10
2023-05-20T07:28:47.980Z,2.90
2023-05-20T07:29:47.947Z,2.80
2023-05-20T07:30:47.974Z,3.10
2023-05-20T07:31:47.943Z,2.60
2023-05-20T07:32:47.955Z,2.70
2023-05-20T07:33:47.946Z,2.70
2023-05-20T07:34:47.936Z,2.90
2023-05-20T07:35:47.954Z,2.90
2023-05-20T07:36:47.915Z,3.00
2023-05-20T07:37:48.171Z,2.80
2023-05-20T07:39:00.539Z,3.10
2023-05-20T07:39:49.009Z,2.80
2023-05-20T07:40:47.856Z,2.60
2023-05-20T07:41:47.857Z,3.00
2023-05-20T07:42:47.856Z,2.90
2023-05-20T07:43:47.795Z,3.30
2023-05-20T07:44:47.804Z,3.10
2023-05-20T07:45:47.819Z,2.70
2023-05-20T07:46:47.789Z,2.60
2023-05-20T07:47:47.810Z,2.80
2023-05-20T07:48:47.772Z,3.20
2023-05-20T07:49:47.737Z,2.80
2023-05-20T07:50:47.762Z,3.20
2023-05-20T07:51:47.709Z,2.90
2023-05-20T07:52:56.072Z,2.70
2023-05-20T07:53:48.688Z,3.00
2023-05-20T07:54:47.693Z,2.70
2023-05-20T07:55:47.657Z,3.00
2023-05-20T07:56:47.761Z,2.90
2023-05-20T07:57:48.100Z,3.20
2023-05-20T07:58:47.804Z,3.00
2023-05-20T07:59:47.660Z,2.90
2023-05-20T08:00:47.617Z,3.00
2023-05-20T08:01:47.666Z,2.70
2023-05-20T08:02:47.695Z,2.90
2023-05-20T08:03:47.687Z,2.90
2023-05-20T08:04:47.592Z,2.60
2023-05-20T08:05:47.542Z,3.00
2023-05-20T08:06:47.561Z,3.30
2023-05-20T08:07:47.558Z,2.80
2023-05-20T08:08:47.547Z,2.80
2023-05-20T08:09:47.535Z,3.20
2023-05-20T08:10:47.510Z,3.00
2023-05-20T08:11:47.761Z,2.90
2023-05-20T08:12:47.700Z,3.10
2023-05-20T08:13:47.470Z,3.30
2023-05-20T08:14:47.816Z,3.10
2023-05-20T08:15:47.438Z,3.00
2023-05-20T08:16:47.967Z,2.80
2023-05-20T08:17:47.654Z,3.00
2023-05-20T08:18:47.694Z,3.10
2023-05-20T08:19:47.713Z,3.10
2023-05-20T08:20:47.542Z,2.90
2023-05-20T08:21:47.743Z,3.10
2023-05-20T08:22:47.971Z,2.80
2023-05-20T08:23:47.554Z,3.20
2023-05-20T08:24:47.382Z,3.20
2023-05-20T08:25:47.417Z,3.20
2023-05-20T08:26:47.326Z,2.90
2023-05-20T08:27:47.329Z,2.90
2023-05-20T08:28:47.324Z,3.00
2023-05-20T08:29:47.331Z,3.00
2023-05-20T08:30:47.310Z,3.10
2023-05-20T08:31:47.256Z,3.30
2023-05-20T08:32:47.320Z,3.20
2023-05-20T08:33:47.231Z,3.10
2023-05-20T08:34:47.233Z,2.90
2023-05-20T08:35:47.208Z,3.00
2023-05-20T08:36:47.225Z,3.10
2023-05-20T08:37:47.174Z,3.10
2023-05-20T08:38:47.866Z,2.80
2023-05-20T08:39:47.177Z,3.10
2023-05-20T08:40:47.167Z,3.00
2023-05-20T08:41:47.156Z,3.10
2023-05-20T08:42:47.139Z,3.50
2023-05-20T08:43:47.167Z,3.20
2023-05-20T08:44:47.109Z,3.10
2023-05-20T08:45:47.147Z,3.30
2023-05-20T08:46:47.186Z,2.60
2023-05-20T08:47:47.128Z,3.00
2023-05-20T08:48:47.065Z,3.10
2023-05-20T08:49:47.076Z,3.00
2023-05-20T08:50:47.151Z,3.30
2023-05-20T08:51:47.060Z,3.10
2023-05-20T08:52:47.051Z,3.00
2023-05-20T08:53:47.069Z,3.20
2023-05-20T08:54:47.016Z,3.60
2023-05-20T08:55:47.014Z,2.90
2023-05-20T08:56:47.003Z,3.10
2023-05-20T08:57:47.026Z,3.30
2023-05-20T08:58:46.970Z,3.00
2023-05-20T08:59:47.174Z,3.60
2023-05-20T09:00:46.986Z,3.30
2023-05-20T09:01:46.966Z,3.00
2023-05-20T09:02:46.938Z,3.20
2023-05-20T09:03:46.904Z,3.00
2023-05-20T09:04:46.918Z,3.40
2023-05-20T09:05:47.156Z,3.10
2023-05-20T09:06:46.873Z,3.40
2023-05-20T09:07:46.873Z,3.40
2023-05-20T09:08:46.825Z,3.40
2023-05-20T09:09:46.850Z,3.10
2023-05-20T09:10:46.819Z,3.20
2023-05-20T09:11:46.944Z,3.50
2023-05-20T09:12:46.820Z,3.00
2023-05-20T09:13:46.820Z,3.80
2023-05-20T09:14:47.352Z,3.20
2023-05-20T09:15:47.050Z,3.30
2023-05-20T09:16:46.744Z,3.70
2023-05-20T09:17:46.805Z,3.60
2023-05-20T09:18:46.783Z,3.40
2023-05-20T09:19:46.761Z,3.30
2023-05-20T09:20:47.850Z,2.90
2023-05-20T09:21:47.129Z,3.50
2023-05-20T09:22:47.815Z,3.30
2023-05-20T09:23:46.682Z,3.50
2023-05-20T09:24:47.196Z,3.50
2023-05-20T09:25:46.651Z,3.70
2023-05-20T09:26:46.663Z,3.40
2023-05-20T09:27:46.625Z,3.70
2023-05-20T09:28:46.690Z,3.50
2023-05-20T09:29:46.941Z,3.10
2023-05-20T09:30:46.810Z,3.40
2023-05-20T09:31:46.939Z,3.70
2023-05-20T09:32:46.647Z,3.50
2023-05-20T09:33:46.599Z,3.50
2023-05-20T09:34:46.624Z,3.60
2023-05-20T09:35:46.573Z,3.60
2023-05-20T09:36:46.575Z,3.10
2023-05-20T09:37:46.566Z,3.10
2023-05-20T09:38:46.506Z,3.40
2023-05-20T09:39:46.563Z,3.30
2023-05-20T09:40:46.486Z,3.20
2023-05-20T09:41:46.489Z,3.20
2023-05-20T09:42:46.447Z,3.80
2023-05-20T09:43:46.454Z,3.30
2023-05-20T09:44:46.456Z,3.30
2023-05-20T09:45:47.072Z,3.20
2023-05-20T09:46:46.435Z,3.50
2023-05-20T09:47:46.491Z,3.30
2023-05-20T09:48:46.376Z,3.30
2023-05-20T09:49:46.376Z,3.00
2023-05-20T09:50:46.343Z,3.00
2023-05-20T09:51:46.393Z,3.20
2023-05-20T09:52:46.330Z,3.10
2023-05-20T09:53:46.413Z,3.20
2023-05-20T09:54:46.307Z,3.00
2023-05-20T09:55:46.320Z,3.30
2023-05-20T09:56:46.291Z,3.20
2023-05-20T09:57:46.296Z,3.00
2023-05-20T09:58:46.258Z,3.20
2023-05-20T09:59:46.309Z,3.00
2023-05-20T10:00:46.409Z,3.10
2023-05-20T10:01:46.485Z,3.20
2023-05-20T10:02:46.312Z,3.30
2023-05-20T10:03:46.320Z,3.10
2023-05-20T10:04:46.240Z,3.00
2023-05-20T10:05:46.212Z,3.00
2023-05-20T10:06:46.172Z,3.50
2023-05-20T10:07:46.198Z,3.10
2023-05-20T10:08:46.135Z,2.90
2023-05-20T10:09:46.175Z,3.20
2023-05-20T10:10:46.138Z,3.00
2023-05-20T10:11:46.261Z,3.10
2023-05-20T10:12:46.113Z,3.10
2023-05-20T10:13:46.114Z,3.00
2023-05-20T10:14:46.096Z,3.00
2023-05-20T10:15:46.154Z,3.60
2023-05-20T10:16:46.075Z,3.10
2023-05-20T10:17:46.184Z,3.30
2023-05-20T10:18:46.388Z,3.20
2023-05-20T10:19:46.056Z,2.90
2023-05-20T10:20:46.029Z,3.30
2023-05-20T10:21:46.163Z,3.40
2023-05-20T10:22:45.985Z,3.20
2023-05-20T10:23:46.005Z,3.00
2023-05-20T10:24:46.040Z,3.00
2023-05-20T10:25:46.017Z,3.20
2023-05-20T10:26:45.941Z,3.10
2023-05-20T10:27:45.971Z,2.70
2023-05-20T10:28:45.963Z,3.40
2023-05-20T10:29:46.510Z,3.20
2023-05-20T10:30:45.911Z,3.10
2023-05-20T10:31:45.925Z,3.40
2023-05-20T10:32:46.065Z,3.30
2023-05-20T10:33:45.973Z,3.10
2023-05-20T10:34:45.865Z,3.00
2023-05-20T10:35:45.865Z,3.10
2023-05-20T10:36:45.856Z,3.40
2023-05-20T10:37:45.842Z,3.20
2023-05-20T10:38:45.813Z,3.10
2023-05-20T10:39:45.820Z,3.10
2023-05-20T10:40:46.267Z,2.90
2023-05-20T10:41:46.122Z,2.70
2023-05-20T10:42:45.900Z,3.10
2023-05-20T10:43:45.770Z,3.60
2023-05-20T10:44:45.747Z,3.00
2023-05-20T10:45:45.778Z,3.00
2023-05-20T10:47:06.703Z,3.10
2023-05-20T10:47:46.778Z,3.10
2023-05-20T10:48:45.818Z,3.30
2023-05-20T10:49:45.723Z,2.80
2023-05-20T10:50:45.677Z,3.30
2023-05-20T10:51:45.693Z,3.00
2023-05-20T10:52:45.649Z,3.00
2023-05-20T10:53:45.655Z,2.90
2023-05-20T10:54:45.618Z,3.60
2023-05-20T10:55:45.640Z,2.90
2023-05-20T10:56:45.609Z,3.30
2023-05-20T10:57:45.650Z,3.20
2023-05-20T10:58:45.579Z,3.10
2023-05-20T10:59:45.594Z,2.80
2023-05-20T11:00:45.706Z,3.00
2023-05-20T11:01:46.337Z,2.80
2023-05-20T11:02:45.665Z,3.30
2023-05-20T11:03:46.147Z,2.90
2023-05-20T11:04:45.510Z,3.10
2023-05-20T11:05:45.516Z,3.00
2023-05-20T11:06:45.516Z,2.90
2023-05-20T11:07:45.539Z,3.30
2023-05-20T11:08:45.561Z,3.20
2023-05-20T11:09:45.593Z,2.60
2023-05-20T11:10:45.464Z,3.00
2023-05-20T11:11:45.461Z,3.40
2023-05-20T11:12:45.455Z,3.30
2023-05-20T11:13:45.681Z,3.10
2023-05-20T11:14:45.398Z,3.30
2023-05-20T11:15:45.804Z,3.30
2023-05-20T11:16:45.576Z,3.00
2023-05-20T11:17:45.457Z,3.00
2023-05-20T11:18:45.483Z,3.10
2023-05-20T11:19:45.368Z,3.50
2023-05-20T11:20:45.340Z,3.00
2023-05-20T11:21:46.123Z,3.00
2023-05-20T11:22:45.322Z,2.90
2023-05-20T11:23:45.389Z,2.90
2023-05-20T11:24:45.332Z,3.10
2023-05-20T11:25:45.292Z,3.10
2023-05-20T11:26:45.258Z,3.10
2023-05-20T11:27:45.294Z,3.40
2023-05-20T11:28:45.275Z,3.30
2023-05-20T11:29:45.275Z,2.60
2023-05-20T11:30:45.247Z,3.00
2023-05-20T11:31:45.244Z,3.10
2023-05-20T11:32:45.255Z,2.80
2023-05-20T11:33:45.203Z,2.70
2023-05-20T11:34:45.168Z,3.20
2023-05-20T11:35:45.234Z,2.90
2023-05-20T11:36:45.217Z,3.00
2023-05-20T11:37:45.190Z,3.10
2023-05-20T11:38:45.193Z,3.20
2023-05-20T11:39:45.269Z,3.00
2023-05-20T11:40:51.212Z,3.20
2023-05-20T11:41:46.145Z,2.80
2023-05-20T11:42:45.206Z,3.10
2023-05-20T11:43:45.192Z,3.00
2023-05-20T11:44:45.074Z,2.80
2023-05-20T11:45:45.107Z,3.30
2023-05-20T11:46:45.139Z,3.00
2023-05-20T11:47:45.114Z,3.50
2023-05-20T11:48:45.028Z,3.00
2023-05-20T11:49:45.131Z,2.90
2023-05-20T11:50:45.046Z,3.00
2023-05-20T11:51:45.338Z,3.20
2023-05-20T11:52:44.957Z,3.10
2023-05-20T11:53:45.058Z,3.30
2023-05-20T11:54:44.942Z,3.20
2023-05-20T11:55:44.964Z,2.80
2023-05-20T11:56:44.985Z,2.90
2023-05-20T11:57:45.591Z,3.00
2023-05-20T11:58:44.933Z,2.90
2023-05-20T11:59:44.917Z,3.10
2023-05-20T12:00:51.781Z,2.80
2023-05-20T12:01:45.991Z,3.10
2023-05-20T12:02:45.073Z,3.50
2023-05-20T12:03:45.181Z,3.20
2023-05-20T12:04:45.164Z,3.20
2023-05-20T12:05:44.909Z,3.30
2023-05-20T12:06:44.809Z,3.30
2023-05-20T12:07:44.833Z,3.50
2023-05-20T12:08:44.858Z,3.30
2023-05-20T12:09:44.822Z,3.40
2023-05-20T12:10:44.782Z,3.20
2023-05-20T12:11:44.878Z,3.20
2023-05-20T12:12:44.769Z,3.50
2023-05-20T12:13:45.495Z,3.70
2023-05-20T12:14:44.756Z,3.60
2023-05-20T12:15:45.480Z,3.70
2023-05-20T12:16:44.695Z,3.10
2023-05-20T12:17:44.761Z,3.00
2023-05-20T12:18:44.749Z,3.20
2023-05-20T12:19:44.939Z,3.40
2023-05-20T12:20:44.673Z,3.70
2023-05-20T12:21:44.683Z,3.30
2023-05-20T12:22:44.737Z,3.50
2023-05-20T12:23:44.728Z,3.30
2023-05-20T12:24:44.649Z,3.70
2023-05-20T12:25:44.707Z,3.40
2023-05-20T12:26:44.611Z,3.50
2023-05-20T12:27:44.606Z,3.60
2023-05-20T12:28:44.611Z,3.30
2023-05-20T12:29:45.007Z,3.20
2023-05-20T12:30:44.617Z,3.40
2023-05-20T12:31:44.595Z,3.90
2023-05-20T12:32:44.824Z,3.60
2023-05-20T12:33:45.267Z,3.90
2023-05-20T12:34:44.519Z,3.40
2023-05-20T12:35:44.534Z,4.30
2023-05-20T12:36:44.472Z,3.80
2023-05-20T12:37:44.533Z,3.70
2023-05-20T12:38:44.534Z,3.60
2023-05-20T12:39:44.662Z,4.00
2023-05-20T12:40:44.462Z,3.80
2023-05-20T12:41:44.445Z,3.60
2023-05-20T12:42:44.420Z,3.60
2023-05-20T12:43:44.468Z,3.60
2023-05-20T12:44:44.493Z,3.60
2023-05-20T12:45:44.487Z,3.70
2023-05-20T12:46:44.407Z,3.50
2023-05-20T12:47:44.574Z,3.60
2023-05-20T12:48:44.336Z,3.90
2023-05-20T12:49:44.350Z,3.70
2023-05-20T12:50:44.370Z,3.60
2023-05-20T12:51:44.521Z,3.80
2023-05-20T12:52:44.514Z,3.80
2023-05-20T12:53:44.303Z,3.90
2023-05-20T12:54:44.276Z,3.70
2023-05-20T12:55:44.298Z,4.10
2023-05-20T12:56:44.242Z,4.20
2023-05-20T12:57:44.254Z,3.90
2023-05-20T12:58:44.216Z,3.70
2023-05-20T12:59:44.205Z,3.90
2023-05-20T13:00:44.249Z,4.50
2023-05-20T13:01:44.182Z,4.00
2023-05-20T13:02:44.277Z,4.30
2023-05-20T13:03:44.202Z,4.00
2023-05-20T13:04:44.397Z,3.80
2023-05-20T13:05:44.396Z,4.00
2023-05-20T13:06:44.167Z,4.10
2023-05-20T13:07:44.139Z,3.80
2023-05-20T13:08:44.142Z,4.00
2023-05-20T13:09:44.117Z,3.80
2023-05-20T13:10:44.443Z,4.20
2023-05-20T13:11:44.096Z,3.90
2023-05-20T13:12:44.151Z,3.90
2023-05-20T13:13:44.058Z,3.70
2023-05-20T13:14:44.068Z,3.80
2023-05-20T13:15:44.043Z,3.90
2023-05-20T13:16:44.091Z,3.80
2023-05-20T13:17:44.133Z,3.70
2023-05-20T13:18:44.036Z,3.90